sensor_id;sensor_type;location;lat;lon;timestamp;temperature;humidity
22781;DHT22;11557;50.884;4.322;2023-06-22T00:00:45;23.40;99.90
22781;DHT22;11557;50.884;4.322;2023-06-22T00:03:10;23.30;99.90
22781;DHT22;11557;50.884;4.322;2023-06-22T00:05:36;23.30;99.90
22781;DHT22;11557;50.884;4.322;2023-06-22T00:08:05;23.30;99.90
22781;DHT22;11557;50.884;4.322;2023-06-22T00:10:31;23.30;99.90
22781;DHT22;11557;50.884;4.322;2023-06-22T00:12:56;23.30;99.90
22781;DHT22;11557;50.884;4.322;2023-06-22T00:15:22;23.60;99.90
22781;DHT22;11557;50.884;4.322;2023-06-22T00:17:49;23.40;99.90
22781;DHT22;11557;50.884;4.322;2023-06-22T00:20:15;23.40;99.90
22781;DHT22;11557;50.884;4.322;2023-06-22T00:22:43;23.40;99.90
22781;DHT22;11557;50.884;4.322;2023-06-22T00:25:10;23.40;99.90
22781;DHT22;11557;50.884;4.322;2023-06-22T00:27:36;23.30;99.90
22781;DHT22;11557;50.884;4.322;2023-06-22T00:30:02;23.30;99.90
22781;DHT22;11557;50.884;4.322;2023-06-22T00:32:28;23.40;99.90
22781;DHT22;11557;50.884;4.322;2023-06-22T00:34:55;23.40;99.90
22781;DHT22;11557;50.884;4.322;2023-06-22T00:37:21;23.40;99.90
22781;DHT22;11557;50.884;4.322;2023-06-22T00:39:51;23.40;99.90
22781;DHT22;11557;50.884;4.322;2023-06-22T00:42:17;23.40;99.90
22781;DHT22;11557;50.884;4.322;2023-06-22T00:44:42;23.30;99.90
22781;DHT22;11557;50.884;4.322;2023-06-22T00:47:09;23.30;99.90
22781;DHT22;11557;50.884;4.322;2023-06-22T00:49:35;23.30;99.90
22781;DHT22;11557;50.884;4.322;2023-06-22T00:52:00;23.30;99.90
22781;DHT22;11557;50.884;4.322;2023-06-22T00:54:26;23.20;99.90
22781;DHT22;11557;50.884;4.322;2023-06-22T00:56:54;23.20;99.90
22781;DHT22;11557;50.884;4.322;2023-06-22T00:59:21;23.20;99.90
22781;DHT22;11557;50.884;4.322;2023-06-22T01:01:47;23.20;99.90
22781;DHT22;11557;50.884;4.322;2023-06-22T01:04:13;23.20;99.90
22781;DHT22;11557;50.884;4.322;2023-06-22T01:06:46;23.20;99.90
22781;DHT22;11557;50.884;4.322;2023-06-22T01:09:20;23.20;99.90
22781;DHT22;11557;50.884;4.322;2023-06-22T01:11:56;23.20;99.90
22781;DHT22;11557;50.884;4.322;2023-06-22T01:16:54;24.60;99.90
22781;DHT22;11557;50.884;4.322;2023-06-22T01:19:46;23.10;99.90
22781;DHT22;11557;50.884;4.322;2023-06-22T01:22:16;23.10;99.90
22781;DHT22;11557;50.884;4.322;2023-06-22T01:30:11;23.10;99.90
22781;DHT22;11557;50.884;4.322;2023-06-22T01:32:40;23.00;99.90
22781;DHT22;11557;50.884;4.322;2023-06-22T01:35:08;23.00;99.90
22781;DHT22;11557;50.884;4.322;2023-06-22T01:37:36;23.00;99.90
22781;DHT22;11557;50.884;4.322;2023-06-22T01:40:02;23.00;99.90
22781;DHT22;11557;50.884;4.322;2023-06-22T01:42:31;23.00;99.90
22781;DHT22;11557;50.884;4.322;2023-06-22T01:44:58;24.10;99.90
22781;DHT22;11557;50.884;4.322;2023-06-22T01:47:25;22.90;99.90
22781;DHT22;11557;50.884;4.322;2023-06-22T01:49:51;22.90;99.90
22781;DHT22;11557;50.884;4.322;2023-06-22T01:52:18;22.90;99.90
22781;DHT22;11557;50.884;4.322;2023-06-22T01:54:44;22.90;99.90
22781;DHT22;11557;50.884;4.322;2023-06-22T01:57:10;22.90;99.90
22781;DHT22;11557;50.884;4.322;2023-06-22T01:59:46;22.80;99.90
22781;DHT22;11557;50.884;4.322;2023-06-22T02:02:16;22.90;99.90
22781;DHT22;11557;50.884;4.322;2023-06-22T02:04:47;23.30;99.90
22781;DHT22;11557;50.884;4.322;2023-06-22T02:07:15;22.80;99.90
22781;DHT22;11557;50.884;4.322;2023-06-22T02:09:44;22.80;99.90
22781;DHT22;11557;50.884;4.322;2023-06-22T02:12:12;22.80;99.90
22781;DHT22;11557;50.884;4.322;2023-06-22T02:14:39;22.70;99.90
22781;DHT22;11557;50.884;4.322;2023-06-22T02:17:07;22.70;99.90
22781;DHT22;11557;50.884;4.322;2023-06-22T02:19:37;23.00;99.90
22781;DHT22;11557;50.884;4.322;2023-06-22T02:22:03;22.60;99.90
22781;DHT22;11557;50.884;4.322;2023-06-22T02:24:29;22.60;99.90
22781;DHT22;11557;50.884;4.322;2023-06-22T02:26:58;22.50;99.90
22781;DHT22;11557;50.884;4.322;2023-06-22T02:29:24;22.50;99.90
22781;DHT22;11557;50.884;4.322;2023-06-22T02:31:49;22.50;99.90
22781;DHT22;11557;50.884;4.322;2023-06-22T02:34:17;22.40;99.90
22781;DHT22;11557;50.884;4.322;2023-06-22T02:36:47;22.40;99.90
22781;DHT22;11557;50.884;4.322;2023-06-22T02:39:20;22.40;99.90
22781;DHT22;11557;50.884;4.322;2023-06-22T02:41:56;22.40;99.90
22781;DHT22;11557;50.884;4.322;2023-06-22T02:44:22;22.40;99.90
22781;DHT22;11557;50.884;4.322;2023-06-22T02:46:48;22.40;99.90
22781;DHT22;11557;50.884;4.322;2023-06-22T02:49:14;22.30;99.90
22781;DHT22;11557;50.884;4.322;2023-06-22T02:51:44;22.40;99.90
22781;DHT22;11557;50.884;4.322;2023-06-22T02:54:10;22.40;99.90
22781;DHT22;11557;50.884;4.322;2023-06-22T02:56:36;22.20;99.90
22781;DHT22;11557;50.884;4.322;2023-06-22T02:59:02;22.20;99.90
22781;DHT22;11557;50.884;4.322;2023-06-22T03:01:28;22.30;99.90
22781;DHT22;11557;50.884;4.322;2023-06-22T03:03:56;22.30;99.90
22781;DHT22;11557;50.884;4.322;2023-06-22T03:06:23;22.30;99.90
22781;DHT22;11557;50.884;4.322;2023-06-22T03:08:52;22.30;99.90
22781;DHT22;11557;50.884;4.322;2023-06-22T03:11:18;22.30;99.90
22781;DHT22;11557;50.884;4.322;2023-06-22T03:13:43;22.30;99.90
22781;DHT22;11557;50.884;4.322;2023-06-22T03:16:11;22.30;99.90
22781;DHT22;11557;50.884;4.322;2023-06-22T03:18:37;22.30;99.90
22781;DHT22;11557;50.884;4.322;2023-06-22T03:21:02;22.20;99.90
22781;DHT22;11557;50.884;4.322;2023-06-22T03:23:28;22.20;99.90
22781;DHT22;11557;50.884;4.322;2023-06-22T03:25:54;22.20;99.90
22781;DHT22;11557;50.884;4.322;2023-06-22T03:28:21;22.20;99.90
22781;DHT22;11557;50.884;4.322;2023-06-22T03:30:47;22.10;99.90
22781;DHT22;11557;50.884;4.322;2023-06-22T03:33:13;22.60;99.90
22781;DHT22;11557;50.884;4.322;2023-06-22T03:35:38;22.00;99.90
22781;DHT22;11557;50.884;4.322;2023-06-22T03:38:04;22.10;99.90
22781;DHT22;11557;50.884;4.322;2023-06-22T03:40:30;22.10;99.90
22781;DHT22;11557;50.884;4.322;2023-06-22T03:42:56;22.00;99.90
22781;DHT22;11557;50.884;4.322;2023-06-22T03:45:22;23.40;99.90
22781;DHT22;11557;50.884;4.322;2023-06-22T03:47:47;21.90;99.90
22781;DHT22;11557;50.884;4.322;2023-06-22T03:50:13;22.00;99.90
22781;DHT22;11557;50.884;4.322;2023-06-22T03:52:40;22.00;99.90
22781;DHT22;11557;50.884;4.322;2023-06-22T03:55:06;22.00;99.90
22781;DHT22;11557;50.884;4.322;2023-06-22T03:57:32;22.00;99.90
22781;DHT22;11557;50.884;4.322;2023-06-22T03:59:58;22.10;99.90
22781;DHT22;11557;50.884;4.322;2023-06-22T04:02:24;22.10;99.90
22781;DHT22;11557;50.884;4.322;2023-06-22T04:04:50;22.20;99.90
22781;DHT22;11557;50.884;4.322;2023-06-22T04:07:16;22.20;99.90
22781;DHT22;11557;50.884;4.322;2023-06-22T04:09:43;22.30;99.90
22781;DHT22;11557;50.884;4.322;2023-06-22T04:12:09;22.30;99.90
22781;DHT22;11557;50.884;4.322;2023-06-22T04:14:35;22.30;99.90
22781;DHT22;11557;50.884;4.322;2023-06-22T04:17:01;22.40;99.90
22781;DHT22;11557;50.884;4.322;2023-06-22T04:19:27;22.40;99.90
22781;DHT22;11557;50.884;4.322;2023-06-22T04:21:53;22.50;99.90
22781;DHT22;11557;50.884;4.322;2023-06-22T04:24:19;22.50;99.90
22781;DHT22;11557;50.884;4.322;2023-06-22T04:26:44;22.60;99.90
22781;DHT22;11557;50.884;4.322;2023-06-22T04:29:12;22.70;99.90
22781;DHT22;11557;50.884;4.322;2023-06-22T04:31:38;22.70;99.90
22781;DHT22;11557;50.884;4.322;2023-06-22T04:34:05;22.70;99.90
22781;DHT22;11557;50.884;4.322;2023-06-22T04:36:35;22.80;99.90
22781;DHT22;11557;50.884;4.322;2023-06-22T04:39:11;22.80;99.90
22781;DHT22;11557;50.884;4.322;2023-06-22T04:41:40;22.80;99.90
22781;DHT22;11557;50.884;4.322;2023-06-22T04:44:13;22.90;99.90
22781;DHT22;11557;50.884;4.322;2023-06-22T04:46:39;22.90;99.90
22781;DHT22;11557;50.884;4.322;2023-06-22T04:49:07;22.80;99.90
22781;DHT22;11557;50.884;4.322;2023-06-22T04:51:41;22.80;99.90
22781;DHT22;11557;50.884;4.322;2023-06-22T04:54:07;22.80;99.90
22781;DHT22;11557;50.884;4.322;2023-06-22T04:56:33;22.80;99.90
22781;DHT22;11557;50.884;4.322;2023-06-22T04:59:00;22.80;99.90
22781;DHT22;11557;50.884;4.322;2023-06-22T05:01:26;22.90;99.90
22781;DHT22;11557;50.884;4.322;2023-06-22T05:03:52;22.90;99.90
22781;DHT22;11557;50.884;4.322;2023-06-22T05:06:24;22.90;99.90
22781;DHT22;11557;50.884;4.322;2023-06-22T05:08:55;22.80;99.90
22781;DHT22;11557;50.884;4.322;2023-06-22T05:11:27;22.90;99.90
22781;DHT22;11557;50.884;4.322;2023-06-22T05:13:53;23.00;99.90
22781;DHT22;11557;50.884;4.322;2023-06-22T05:16:20;23.10;99.90
22781;DHT22;11557;50.884;4.322;2023-06-22T05:18:53;23.10;99.90
22781;DHT22;11557;50.884;4.322;2023-06-22T05:21:23;24.10;99.90
22781;DHT22;11557;50.884;4.322;2023-06-22T05:23:50;23.20;99.90
22781;DHT22;11557;50.884;4.322;2023-06-22T05:26:16;23.20;99.90
22781;DHT22;11557;50.884;4.322;2023-06-22T05:28:42;24.40;99.90
22781;DHT22;11557;50.884;4.322;2023-06-22T05:31:12;23.30;99.90
22781;DHT22;11557;50.884;4.322;2023-06-22T05:33:38;23.30;99.90
22781;DHT22;11557;50.884;4.322;2023-06-22T05:36:04;23.30;99.90
22781;DHT22;11557;50.884;4.322;2023-06-22T05:38:30;23.20;99.90
22781;DHT22;11557;50.884;4.322;2023-06-22T05:40:56;23.20;99.90
22781;DHT22;11557;50.884;4.322;2023-06-22T05:43:22;23.10;99.90
22781;DHT22;11557;50.884;4.322;2023-06-22T05:45:48;23.10;99.90
22781;DHT22;11557;50.884;4.322;2023-06-22T05:48:13;23.10;99.90
22781;DHT22;11557;50.884;4.322;2023-06-22T05:50:39;23.10;99.90
22781;DHT22;11557;50.884;4.322;2023-06-22T05:53:04;23.10;99.90
22781;DHT22;11557;50.884;4.322;2023-06-22T05:55:33;23.10;99.90
22781;DHT22;11557;50.884;4.322;2023-06-22T05:57:58;23.10;99.90
22781;DHT22;11557;50.884;4.322;2023-06-22T06:00:24;23.10;99.90
22781;DHT22;11557;50.884;4.322;2023-06-22T06:02:50;23.00;99.90
22781;DHT22;11557;50.884;4.322;2023-06-22T06:05:16;23.10;99.90
22781;DHT22;11557;50.884;4.322;2023-06-22T06:07:42;23.00;99.90
22781;DHT22;11557;50.884;4.322;2023-06-22T06:10:09;23.00;99.90
22781;DHT22;11557;50.884;4.322;2023-06-22T06:12:35;23.10;99.90
22781;DHT22;11557;50.884;4.322;2023-06-22T06:15:01;23.10;99.90
22781;DHT22;11557;50.884;4.322;2023-06-22T06:17:27;23.10;99.90
22781;DHT22;11557;50.884;4.322;2023-06-22T06:19:53;23.10;99.90
22781;DHT22;11557;50.884;4.322;2023-06-22T06:22:18;23.00;99.90
22781;DHT22;11557;50.884;4.322;2023-06-22T06:24:46;23.10;99.90
22781;DHT22;11557;50.884;4.322;2023-06-22T06:27:13;23.00;99.90
22781;DHT22;11557;50.884;4.322;2023-06-22T06:29:39;23.00;99.90
22781;DHT22;11557;50.884;4.322;2023-06-22T06:32:04;23.10;99.90
22781;DHT22;11557;50.884;4.322;2023-06-22T06:34:30;22.90;99.90
22781;DHT22;11557;50.884;4.322;2023-06-22T06:36:56;22.90;99.90
22781;DHT22;11557;50.884;4.322;2023-06-22T06:39:21;23.00;99.90
22781;DHT22;11557;50.884;4.322;2023-06-22T06:41:47;23.00;99.90
22781;DHT22;11557;50.884;4.322;2023-06-22T06:44:12;23.10;99.90
22781;DHT22;11557;50.884;4.322;2023-06-22T06:46:38;23.10;99.90
22781;DHT22;11557;50.884;4.322;2023-06-22T06:49:04;23.00;99.90
22781;DHT22;11557;50.884;4.322;2023-06-22T06:51:29;23.10;99.90
22781;DHT22;11557;50.884;4.322;2023-06-22T06:53:55;23.20;99.90
22781;DHT22;11557;50.884;4.322;2023-06-22T06:56:20;23.30;99.90
22781;DHT22;11557;50.884;4.322;2023-06-22T06:58:46;23.40;99.90
22781;DHT22;11557;50.884;4.322;2023-06-22T07:01:12;23.40;99.90
22781;DHT22;11557;50.884;4.322;2023-06-22T07:03:38;23.50;99.90
22781;DHT22;11557;50.884;4.322;2023-06-22T07:06:04;23.50;99.90
22781;DHT22;11557;50.884;4.322;2023-06-22T07:08:30;23.70;99.90
22781;DHT22;11557;50.884;4.322;2023-06-22T07:10:55;23.80;99.90
22781;DHT22;11557;50.884;4.322;2023-06-22T07:13:21;23.90;99.90
22781;DHT22;11557;50.884;4.322;2023-06-22T07:15:47;24.00;99.90
22781;DHT22;11557;50.884;4.322;2023-06-22T07:18:13;24.10;99.90
22781;DHT22;11557;50.884;4.322;2023-06-22T07:20:38;24.10;99.90
22781;DHT22;11557;50.884;4.322;2023-06-22T07:23:05;24.20;99.90
22781;DHT22;11557;50.884;4.322;2023-06-22T07:25:30;24.30;99.90
22781;DHT22;11557;50.884;4.322;2023-06-22T07:28:03;24.30;99.90
22781;DHT22;11557;50.884;4.322;2023-06-22T07:30:30;24.40;99.90
22781;DHT22;11557;50.884;4.322;2023-06-22T07:32:56;24.50;99.90
22781;DHT22;11557;50.884;4.322;2023-06-22T07:35:22;24.60;99.90
22781;DHT22;11557;50.884;4.322;2023-06-22T07:37:48;24.70;99.90
22781;DHT22;11557;50.884;4.322;2023-06-22T07:40:13;24.60;99.90
22781;DHT22;11557;50.884;4.322;2023-06-22T07:42:40;24.70;99.90
22781;DHT22;11557;50.884;4.322;2023-06-22T07:45:07;24.70;99.90
22781;DHT22;11557;50.884;4.322;2023-06-22T07:47:36;24.70;99.90
22781;DHT22;11557;50.884;4.322;2023-06-22T07:50:02;24.70;99.90
22781;DHT22;11557;50.884;4.322;2023-06-22T07:52:28;24.80;99.90
22781;DHT22;11557;50.884;4.322;2023-06-22T07:54:54;24.80;99.90
22781;DHT22;11557;50.884;4.322;2023-06-22T07:57:20;24.80;99.90
22781;DHT22;11557;50.884;4.322;2023-06-22T07:59:46;24.80;99.90
22781;DHT22;11557;50.884;4.322;2023-06-22T08:02:12;24.90;99.90
22781;DHT22;11557;50.884;4.322;2023-06-22T08:04:38;25.00;99.90
22781;DHT22;11557;50.884;4.322;2023-06-22T08:07:07;25.00;99.90
22781;DHT22;11557;50.884;4.322;2023-06-22T08:09:33;25.00;99.90
22781;DHT22;11557;50.884;4.322;2023-06-22T08:11:59;25.10;99.90
22781;DHT22;11557;50.884;4.322;2023-06-22T08:14:26;25.00;99.90
22781;DHT22;11557;50.884;4.322;2023-06-22T08:16:52;24.90;99.90
22781;DHT22;11557;50.884;4.322;2023-06-22T08:19:17;25.00;99.90
22781;DHT22;11557;50.884;4.322;2023-06-22T08:21:43;24.80;99.90
22781;DHT22;11557;50.884;4.322;2023-06-22T08:24:09;24.60;99.90
22781;DHT22;11557;50.884;4.322;2023-06-22T08:26:35;24.60;99.90
22781;DHT22;11557;50.884;4.322;2023-06-22T08:29:05;24.50;99.90
22781;DHT22;11557;50.884;4.322;2023-06-22T08:31:31;24.40;99.90
22781;DHT22;11557;50.884;4.322;2023-06-22T08:33:58;24.40;99.90
22781;DHT22;11557;50.884;4.322;2023-06-22T08:36:24;24.30;99.90
22781;DHT22;11557;50.884;4.322;2023-06-22T08:38:51;24.00;99.90
22781;DHT22;11557;50.884;4.322;2023-06-22T08:41:18;24.00;99.90
22781;DHT22;11557;50.884;4.322;2023-06-22T08:43:44;24.00;99.90
22781;DHT22;11557;50.884;4.322;2023-06-22T08:46:10;24.00;99.90
22781;DHT22;11557;50.884;4.322;2023-06-22T08:48:36;24.00;99.90
22781;DHT22;11557;50.884;4.322;2023-06-22T08:51:02;23.90;99.90
22781;DHT22;11557;50.884;4.322;2023-06-22T08:53:28;23.90;99.90
22781;DHT22;11557;50.884;4.322;2023-06-22T08:55:54;23.90;99.90
22781;DHT22;11557;50.884;4.322;2023-06-22T08:58:19;23.80;99.90
22781;DHT22;11557;50.884;4.322;2023-06-22T09:00:47;23.90;99.90
22781;DHT22;11557;50.884;4.322;2023-06-22T09:03:13;23.90;99.90
22781;DHT22;11557;50.884;4.322;2023-06-22T09:05:38;23.80;99.90
22781;DHT22;11557;50.884;4.322;2023-06-22T09:27:58;23.30;99.90
22781;DHT22;11557;50.884;4.322;2023-06-22T09:30:24;23.40;99.90
22781;DHT22;11557;50.884;4.322;2023-06-22T09:32:49;23.40;99.90
22781;DHT22;11557;50.884;4.322;2023-06-22T09:35:15;23.60;99.90
22781;DHT22;11557;50.884;4.322;2023-06-22T09:37:41;23.70;99.90
22781;DHT22;11557;50.884;4.322;2023-06-22T09:40:07;23.80;99.90
22781;DHT22;11557;50.884;4.322;2023-06-22T09:42:35;23.80;99.90
22781;DHT22;11557;50.884;4.322;2023-06-22T09:45:01;23.80;99.90
22781;DHT22;11557;50.884;4.322;2023-06-22T09:47:29;23.70;99.90
22781;DHT22;11557;50.884;4.322;2023-06-22T09:49:54;23.50;99.90
22781;DHT22;11557;50.884;4.322;2023-06-22T09:52:22;23.50;99.90
22781;DHT22;11557;50.884;4.322;2023-06-22T09:54:48;23.50;99.90
22781;DHT22;11557;50.884;4.322;2023-06-22T09:57:13;23.40;99.90
22781;DHT22;11557;50.884;4.322;2023-06-22T09:59:39;23.40;99.90
22781;DHT22;11557;50.884;4.322;2023-06-22T10:02:08;23.40;99.90
22781;DHT22;11557;50.884;4.322;2023-06-22T10:04:34;23.30;99.90
22781;DHT22;11557;50.884;4.322;2023-06-22T10:07:01;23.20;99.90
22781;DHT22;11557;50.884;4.322;2023-06-22T10:09:27;23.10;99.90
22781;DHT22;11557;50.884;4.322;2023-06-22T10:11:52;23.00;99.90
22781;DHT22;11557;50.884;4.322;2023-06-22T10:14:18;22.90;99.90
22781;DHT22;11557;50.884;4.322;2023-06-22T10:16:44;22.90;99.90
22781;DHT22;11557;50.884;4.322;2023-06-22T10:19:10;22.80;99.90
22781;DHT22;11557;50.884;4.322;2023-06-22T10:21:36;22.80;99.90
22781;DHT22;11557;50.884;4.322;2023-06-22T10:24:01;22.70;99.90
22781;DHT22;11557;50.884;4.322;2023-06-22T10:26:32;22.60;99.90
22781;DHT22;11557;50.884;4.322;2023-06-22T10:28:58;22.60;99.90
22781;DHT22;11557;50.884;4.322;2023-06-22T10:31:24;22.40;99.90
22781;DHT22;11557;50.884;4.322;2023-06-22T10:33:50;22.30;99.90
22781;DHT22;11557;50.884;4.322;2023-06-22T10:36:15;22.20;99.90
22781;DHT22;11557;50.884;4.322;2023-06-22T10:38:41;22.10;99.90
22781;DHT22;11557;50.884;4.322;2023-06-22T10:41:07;22.00;99.90
22781;DHT22;11557;50.884;4.322;2023-06-22T10:43:33;21.90;99.90
22781;DHT22;11557;50.884;4.322;2023-06-22T10:45:58;21.90;99.90
22781;DHT22;11557;50.884;4.322;2023-06-22T10:48:24;21.70;99.90
22781;DHT22;11557;50.884;4.322;2023-06-22T10:50:49;21.70;99.90
22781;DHT22;11557;50.884;4.322;2023-06-22T10:53:15;21.90;99.90
22781;DHT22;11557;50.884;4.322;2023-06-22T10:55:41;21.60;99.90
22781;DHT22;11557;50.884;4.322;2023-06-22T10:58:07;21.60;99.90
22781;DHT22;11557;50.884;4.322;2023-06-22T11:00:33;21.70;99.90
22781;DHT22;11557;50.884;4.322;2023-06-22T11:02:59;21.60;99.90
22781;DHT22;11557;50.884;4.322;2023-06-22T11:05:25;21.50;99.90
22781;DHT22;11557;50.884;4.322;2023-06-22T11:07:51;21.30;99.90
22781;DHT22;11557;50.884;4.322;2023-06-22T11:10:17;21.40;99.90
22781;DHT22;11557;50.884;4.322;2023-06-22T11:12:42;21.30;99.90
22781;DHT22;11557;50.884;4.322;2023-06-22T11:15:09;21.30;99.90
22781;DHT22;11557;50.884;4.322;2023-06-22T11:17:35;21.40;99.90
22781;DHT22;11557;50.884;4.322;2023-06-22T11:20:00;21.30;99.90
22781;DHT22;11557;50.884;4.322;2023-06-22T11:22:26;21.30;99.90
22781;DHT22;11557;50.884;4.322;2023-06-22T11:24:52;21.30;99.90
22781;DHT22;11557;50.884;4.322;2023-06-22T11:27:18;21.60;99.90
22781;DHT22;11557;50.884;4.322;2023-06-22T11:29:44;21.70;99.90
22781;DHT22;11557;50.884;4.322;2023-06-22T11:32:09;21.50;99.90
22781;DHT22;11557;50.884;4.322;2023-06-22T11:34:35;21.30;99.90
22781;DHT22;11557;50.884;4.322;2023-06-22T11:37:01;21.30;99.90
22781;DHT22;11557;50.884;4.322;2023-06-22T11:39:26;21.40;99.90
22781;DHT22;11557;50.884;4.322;2023-06-22T11:41:52;21.30;99.90
22781;DHT22;11557;50.884;4.322;2023-06-22T11:44:18;21.20;99.90
22781;DHT22;11557;50.884;4.322;2023-06-22T11:46:44;21.20;99.90
22781;DHT22;11557;50.884;4.322;2023-06-22T11:49:09;21.30;99.90
22781;DHT22;11557;50.884;4.322;2023-06-22T11:51:35;21.30;99.90
22781;DHT22;11557;50.884;4.322;2023-06-22T11:54:00;21.30;99.90
22781;DHT22;11557;50.884;4.322;2023-06-22T11:56:27;21.30;99.90
22781;DHT22;11557;50.884;4.322;2023-06-22T11:58:53;21.50;99.90
22781;DHT22;11557;50.884;4.322;2023-06-22T12:01:19;21.60;99.90
22781;DHT22;11557;50.884;4.322;2023-06-22T12:03:45;21.60;99.90
22781;DHT22;11557;50.884;4.322;2023-06-22T12:06:11;21.50;99.90
22781;DHT22;11557;50.884;4.322;2023-06-22T12:08:37;21.70;99.90
22781;DHT22;11557;50.884;4.322;2023-06-22T12:11:03;21.60;99.90
22781;DHT22;11557;50.884;4.322;2023-06-22T12:13:28;21.60;99.90
22781;DHT22;11557;50.884;4.322;2023-06-22T12:15:54;21.60;99.90
22781;DHT22;11557;50.884;4.322;2023-06-22T12:18:20;21.50;99.90
22781;DHT22;11557;50.884;4.322;2023-06-22T12:20:46;21.20;99.90
22781;DHT22;11557;50.884;4.322;2023-06-22T12:23:12;21.30;99.90
22781;DHT22;11557;50.884;4.322;2023-06-22T12:25:38;21.30;99.90
22781;DHT22;11557;50.884;4.322;2023-06-22T12:28:03;21.40;99.90
22781;DHT22;11557;50.884;4.322;2023-06-22T12:30:30;21.30;99.90
22781;DHT22;11557;50.884;4.322;2023-06-22T12:32:56;21.30;99.90
22781;DHT22;11557;50.884;4.322;2023-06-22T12:35:21;21.30;99.90
22781;DHT22;11557;50.884;4.322;2023-06-22T12:37:47;21.30;99.90
22781;DHT22;11557;50.884;4.322;2023-06-22T12:40:13;21.40;99.90
22781;DHT22;11557;50.884;4.322;2023-06-22T12:42:39;21.40;99.90
22781;DHT22;11557;50.884;4.322;2023-06-22T12:45:05;21.30;99.90
22781;DHT22;11557;50.884;4.322;2023-06-22T12:47:31;21.30;99.90
22781;DHT22;11557;50.884;4.322;2023-06-22T12:49:57;21.30;99.90
22781;DHT22;11557;50.884;4.322;2023-06-22T12:52:22;21.20;99.90
22781;DHT22;11557;50.884;4.322;2023-06-22T12:54:48;21.10;99.90
22781;DHT22;11557;50.884;4.322;2023-06-22T12:57:14;21.10;99.90
22781;DHT22;11557;50.884;4.322;2023-06-22T12:59:40;21.00;99.90
22781;DHT22;11557;50.884;4.322;2023-06-22T13:02:05;21.00;99.90
22781;DHT22;11557;50.884;4.322;2023-06-22T13:04:31;21.00;99.90
22781;DHT22;11557;50.884;4.322;2023-06-22T13:06:57;21.10;99.90
22781;DHT22;11557;50.884;4.322;2023-06-22T13:09:22;21.10;99.90
22781;DHT22;11557;50.884;4.322;2023-06-22T13:11:48;21.00;99.90
22781;DHT22;11557;50.884;4.322;2023-06-22T13:14:14;20.90;99.90
22781;DHT22;11557;50.884;4.322;2023-06-22T13:16:42;21.00;99.90
22781;DHT22;11557;50.884;4.322;2023-06-22T13:19:07;20.90;99.90
22781;DHT22;11557;50.884;4.322;2023-06-22T13:21:33;20.90;99.90
22781;DHT22;11557;50.884;4.322;2023-06-22T13:23:59;20.90;99.90
22781;DHT22;11557;50.884;4.322;2023-06-22T13:26:25;20.90;99.90
22781;DHT22;11557;50.884;4.322;2023-06-22T13:28:51;20.70;99.90
22781;DHT22;11557;50.884;4.322;2023-06-22T13:31:17;21.70;99.90
22781;DHT22;11557;50.884;4.322;2023-06-22T13:33:42;20.70;99.90
22781;DHT22;11557;50.884;4.322;2023-06-22T13:36:09;20.80;99.90
22781;DHT22;11557;50.884;4.322;2023-06-22T13:38:35;20.70;99.90
22781;DHT22;11557;50.884;4.322;2023-06-22T13:41:04;20.60;99.90
22781;DHT22;11557;50.884;4.322;2023-06-22T13:43:30;20.60;99.90
22781;DHT22;11557;50.884;4.322;2023-06-22T13:45:56;20.70;99.90
22781;DHT22;11557;50.884;4.322;2023-06-22T13:48:21;20.70;99.90
22781;DHT22;11557;50.884;4.322;2023-06-22T13:50:48;20.70;99.90
22781;DHT22;11557;50.884;4.322;2023-06-22T13:53:14;20.60;99.90
22781;DHT22;11557;50.884;4.322;2023-06-22T13:55:40;20.50;99.90
22781;DHT22;11557;50.884;4.322;2023-06-22T13:58:06;20.50;99.90
22781;DHT22;11557;50.884;4.322;2023-06-22T14:00:32;20.60;99.90
22781;DHT22;11557;50.884;4.322;2023-06-22T14:02:58;20.40;99.90
22781;DHT22;11557;50.884;4.322;2023-06-22T14:05:24;20.40;99.90
22781;DHT22;11557;50.884;4.322;2023-06-22T14:07:50;20.10;99.90
22781;DHT22;11557;50.884;4.322;2023-06-22T14:10:15;19.90;99.90
22781;DHT22;11557;50.884;4.322;2023-06-22T14:12:41;20.00;99.90
22781;DHT22;11557;50.884;4.322;2023-06-22T14:15:07;20.00;99.90
22781;DHT22;11557;50.884;4.322;2023-06-22T14:17:33;20.20;99.90
22781;DHT22;11557;50.884;4.322;2023-06-22T14:19:59;20.30;99.90
22781;DHT22;11557;50.884;4.322;2023-06-22T14:22:24;20.50;99.90
22781;DHT22;11557;50.884;4.322;2023-06-22T14:24:51;20.70;99.90
22781;DHT22;11557;50.884;4.322;2023-06-22T14:27:16;20.70;99.90
22781;DHT22;11557;50.884;4.322;2023-06-22T14:29:42;20.70;99.90
22781;DHT22;11557;50.884;4.322;2023-06-22T14:32:09;20.70;99.90
22781;DHT22;11557;50.884;4.322;2023-06-22T14:34:35;20.60;99.90
22781;DHT22;11557;50.884;4.322;2023-06-22T14:37:08;20.40;99.90
22781;DHT22;11557;50.884;4.322;2023-06-22T14:39:35;20.50;99.90
22781;DHT22;11557;50.884;4.322;2023-06-22T14:42:01;20.50;99.90
22781;DHT22;11557;50.884;4.322;2023-06-22T14:44:28;20.50;99.90
22781;DHT22;11557;50.884;4.322;2023-06-22T14:46:57;20.60;99.90
22781;DHT22;11557;50.884;4.322;2023-06-22T14:49:23;20.70;99.90
22781;DHT22;11557;50.884;4.322;2023-06-22T14:51:48;20.70;99.90
22781;DHT22;11557;50.884;4.322;2023-06-22T14:54:14;20.70;99.90
22781;DHT22;11557;50.884;4.322;2023-06-22T14:56:40;20.80;99.90
22781;DHT22;11557;50.884;4.322;2023-06-22T14:59:06;20.70;99.90
22781;DHT22;11557;50.884;4.322;2023-06-22T15:01:32;20.70;99.90
22781;DHT22;11557;50.884;4.322;2023-06-22T15:03:58;20.70;99.90
22781;DHT22;11557;50.884;4.322;2023-06-22T15:06:23;20.70;99.90
22781;DHT22;11557;50.884;4.322;2023-06-22T15:08:49;20.60;99.90
22781;DHT22;11557;50.884;4.322;2023-06-22T15:11:15;20.60;99.90
22781;DHT22;11557;50.884;4.322;2023-06-22T15:13:41;20.60;99.90
22781;DHT22;11557;50.884;4.322;2023-06-22T15:16:08;20.70;99.90
22781;DHT22;11557;50.884;4.322;2023-06-22T15:18:35;20.80;99.90
22781;DHT22;11557;50.884;4.322;2023-06-22T15:21:02;20.90;99.90
22781;DHT22;11557;50.884;4.322;2023-06-22T15:23:29;20.90;99.90
22781;DHT22;11557;50.884;4.322;2023-06-22T15:25:55;21.00;99.90
22781;DHT22;11557;50.884;4.322;2023-06-22T15:28:21;20.90;99.90
22781;DHT22;11557;50.884;4.322;2023-06-22T15:30:50;21.10;99.90
22781;DHT22;11557;50.884;4.322;2023-06-22T15:33:17;21.20;99.90
22781;DHT22;11557;50.884;4.322;2023-06-22T15:35:44;21.30;99.90
22781;DHT22;11557;50.884;4.322;2023-06-22T15:38:10;21.40;99.90
22781;DHT22;11557;50.884;4.322;2023-06-22T15:40:35;21.40;99.90
22781;DHT22;11557;50.884;4.322;2023-06-22T15:43:01;21.40;99.90
22781;DHT22;11557;50.884;4.322;2023-06-22T15:45:27;21.40;99.90
22781;DHT22;11557;50.884;4.322;2023-06-22T15:47:53;21.40;99.90
22781;DHT22;11557;50.884;4.322;2023-06-22T15:50:19;21.50;99.90
22781;DHT22;11557;50.884;4.322;2023-06-22T15:52:45;21.60;99.90